sensor_id;sensor_type;location;lat;lon;timestamp;P1;durP1;ratioP1;P2;durP2;ratioP2
26474;SDS011;14161;52.270;10.334;2023-05-10T07:03:45;7.75;;;5.07;;
26474;SDS011;14161;52.270;10.334;2023-05-10T07:06:10;5.85;;;4.72;;
26474;SDS011;14161;52.270;10.334;2023-05-10T07:08:36;4.82;;;3.75;;
26474;SDS011;14161;52.270;10.334;2023-05-10T07:11:02;4.82;;;3.72;;
26474;SDS011;14161;52.270;10.334;2023-05-10T07:13:29;4.97;;;4.30;;
26474;SDS011;14161;52.270;10.334;2023-05-10T07:16:03;6.15;;;3.88;;
26474;SDS011;14161;52.270;10.334;2023-05-10T07:18:29;5.47;;;4.70;;
26474;SDS011;14161;52.270;10.334;2023-05-10T07:20:54;7.22;;;4.70;;
26474;SDS011;14161;52.270;10.334;2023-05-10T07:23:20;5.38;;;3.85;;
26474;SDS011;14161;52.270;10.334;2023-05-10T07:25:49;5.00;;;4.40;;
26474;SDS011;14161;52.270;10.334;2023-05-10T07:28:17;4.20;;;3.70;;
26474;SDS011;14161;52.270;10.334;2023-05-10T07:30:46;6.65;;;4.07;;
26474;SDS011;14161;52.270;10.334;2023-05-10T07:33:17;5.45;;;4.53;;
26474;SDS011;14161;52.270;10.334;2023-05-10T07:35:43;5.18;;;4.28;;
26474;SDS011;14161;52.270;10.334;2023-05-10T07:38:15;6.43;;;4.53;;
26474;SDS011;14161;52.270;10.334;2023-05-10T07:40:42;6.97;;;3.75;;
26474;SDS011;14161;52.270;10.334;2023-05-10T07:43:11;4.35;;;3.65;;
26474;SDS011;14161;52.270;10.334;2023-05-10T07:45:40;5.55;;;3.95;;
26474;SDS011;14161;52.270;10.334;2023-05-10T07:48:05;6.95;;;4.20;;
26474;SDS011;14161;52.270;10.334;2023-05-10T07:50:34;4.22;;;3.65;;
26474;SDS011;14161;52.270;10.334;2023-05-10T07:52:59;4.80;;;4.30;;
26474;SDS011;14161;52.270;10.334;2023-05-10T07:55:31;5.63;;;4.35;;
26474;SDS011;14161;52.270;10.334;2023-05-10T07:58:15;4.38;;;3.67;;
26474;SDS011;14161;52.270;10.334;2023-05-10T08:00:41;8.73;;;4.05;;
26474;SDS011;14161;52.270;10.334;2023-05-10T08:03:07;4.90;;;4.38;;
26474;SDS011;14161;52.270;10.334;2023-05-10T08:05:35;6.68;;;4.32;;
26474;SDS011;14161;52.270;10.334;2023-05-10T08:08:00;5.35;;;4.47;;
26474;SDS011;14161;52.270;10.334;2023-05-10T08:10:29;3.78;;;3.40;;
26474;SDS011;14161;52.270;10.334;2023-05-10T08:13:00;5.68;;;4.40;;
26474;SDS011;14161;52.270;10.334;2023-05-10T08:15:38;4.95;;;4.20;;
26474;SDS011;14161;52.270;10.334;2023-05-10T08:18:06;4.63;;;3.95;;
26474;SDS011;14161;52.270;10.334;2023-05-10T08:20:39;4.68;;;4.00;;
26474;SDS011;14161;52.270;10.334;2023-05-10T08:23:05;4.55;;;3.85;;
26474;SDS011;14161;52.270;10.334;2023-05-10T08:25:53;4.38;;;3.78;;
26474;SDS011;14161;52.270;10.334;2023-05-10T08:28:27;5.68;;;4.03;;
26474;SDS011;14161;52.270;10.334;2023-05-10T08:31:03;3.75;;;3.45;;
26474;SDS011;14161;52.270;10.334;2023-05-10T08:33:46;3.92;;;3.53;;
26474;SDS011;14161;52.270;10.334;2023-05-10T08:36:36;4.22;;;3.22;;
26474;SDS011;14161;52.270;10.334;2023-05-10T08:39:02;3.38;;;2.90;;
26474;SDS011;14161;52.270;10.334;2023-05-10T08:41:30;3.55;;;3.25;;
26474;SDS011;14161;52.270;10.334;2023-05-10T08:44:03;3.22;;;2.80;;
26474;SDS011;14161;52.270;10.334;2023-05-10T08:46:39;4.45;;;3.95;;
26474;SDS011;14161;52.270;10.334;2023-05-10T08:49:13;3.50;;;3.13;;
26474;SDS011;14161;52.270;10.334;2023-05-10T08:51:55;3.03;;;2.72;;
26474;SDS011;14161;52.270;10.334;2023-05-10T08:54:39;3.40;;;3.10;;
26474;SDS011;14161;52.270;10.334;2023-05-10T08:57:10;3.60;;;3.30;;
26474;SDS011;14161;52.270;10.334;2023-05-10T08:59:43;4.30;;;3.55;;
26474;SDS011;14161;52.270;10.334;2023-05-10T09:02:15;3.92;;;3.53;;
26474;SDS011;14161;52.270;10.334;2023-05-10T09:04:43;6.95;;;3.67;;
26474;SDS011;14161;52.270;10.334;2023-05-10T09:07:17;3.35;;;3.00;;
26474;SDS011;14161;52.270;10.334;2023-05-10T09:10:22;4.25;;;3.33;;
26474;SDS011;14161;52.270;10.334;2023-05-10T09:12:55;3.72;;;3.33;;
26474;SDS011;14161;52.270;10.334;2023-05-10T09:15:36;3.20;;;2.90;;
26474;SDS011;14161;52.270;10.334;2023-05-10T09:18:15;3.50;;;2.22;;
26474;SDS011;14161;52.270;10.334;2023-05-10T09:20:44;1.77;;;1.67;;
26474;SDS011;14161;52.270;10.334;2023-05-10T09:23:13;2.47;;;2.15;;
26474;SDS011;14161;52.270;10.334;2023-05-10T09:25:48;1.88;;;1.77;;
26474;SDS011;14161;52.270;10.334;2023-05-10T09:34:47;2.80;;;1.50;;
26474;SDS011;14161;52.270;10.334;2023-05-10T09:37:31;1.50;;;1.40;;
26474;SDS011;14161;52.270;10.334;2023-05-10T09:40:07;1.23;;;1.00;;
26474;SDS011;14161;52.270;10.334;2023-05-10T09:43:05;1.23;;;0.82;;
26474;SDS011;14161;52.270;10.334;2023-05-10T09:45:37;1.85;;;0.80;;
26474;SDS011;14161;52.270;10.334;2023-05-10T09:48:16;0.77;;;0.77;;
26474;SDS011;14161;52.270;10.334;2023-05-10T09:50:45;1.08;;;0.82;;
26474;SDS011;14161;52.270;10.334;2023-05-10T09:53:13;1.58;;;0.85;;
26474;SDS011;14161;52.270;10.334;2023-05-10T09:55:41;0.60;;;0.60;;
26474;SDS011;14161;52.270;10.334;2023-05-10T09:58:10;1.25;;;0.80;;
26474;SDS011;14161;52.270;10.334;2023-05-10T10:00:39;0.77;;;0.68;;
26474;SDS011;14161;52.270;10.334;2023-05-10T10:03:07;0.60;;;0.60;;
26474;SDS011;14161;52.270;10.334;2023-05-10T10:05:39;0.57;;;0.50;;
26474;SDS011;14161;52.270;10.334;2023-05-10T10:08:05;0.60;;;0.52;;
26474;SDS011;14161;52.270;10.334;2023-05-10T10:10:34;0.90;;;0.60;;
26474;SDS011;14161;52.270;10.334;2023-05-10T10:13:01;2.47;;;0.50;;
26474;SDS011;14161;52.270;10.334;2023-05-10T10:15:29;0.60;;;0.60;;
26474;SDS011;14161;52.270;10.334;2023-05-10T10:17:55;0.88;;;0.47;;
26474;SDS011;14161;52.270;10.334;2023-05-10T10:20:21;3.50;;;0.63;;
26474;SDS011;14161;52.270;10.334;2023-05-10T10:22:49;0.55;;;0.55;;
26474;SDS011;14161;52.270;10.334;2023-05-10T10:25:15;0.60;;;0.60;;
26474;SDS011;14161;52.270;10.334;2023-05-10T10:28:15;0.70;;;0.70;;
26474;SDS011;14161;52.270;10.334;2023-05-10T10:36:51;0.57;;;0.57;;
26474;SDS011;14161;52.270;10.334;2023-05-10T10:39:26;0.60;;;0.60;;
26474;SDS011;14161;52.270;10.334;2023-05-10T10:41:57;0.82;;;0.60;;
26474;SDS011;14161;52.270;10.334;2023-05-10T10:44:47;0.63;;;0.47;;
26474;SDS011;14161;52.270;10.334;2023-05-10T10:50:11;0.70;;;0.70;;
26474;SDS011;14161;52.270;10.334;2023-05-10T10:52:44;0.85;;;0.85;;
26474;SDS011;14161;52.270;10.334;2023-05-10T10:55:20;2.25;;;0.70;;
26474;SDS011;14161;52.270;10.334;2023-05-10T11:01:19;0.80;;;0.80;;
26474;SDS011;14161;52.270;10.334;2023-05-10T11:04:39;1.20;;;0.75;;
26474;SDS011;14161;52.270;10.334;2023-05-10T11:07:33;0.60;;;0.60;;
26474;SDS011;14161;52.270;10.334;2023-05-10T11:10:19;1.05;;;0.80;;
26474;SDS011;14161;52.270;10.334;2023-05-10T11:13:04;1.13;;;0.60;;
26474;SDS011;14161;52.270;10.334;2023-05-10T11:15:37;0.60;;;0.60;;
26474;SDS011;14161;52.270;10.334;2023-05-10T11:18:16;0.73;;;0.73;;
26474;SDS011;14161;52.270;10.334;2023-05-10T11:20:43;1.05;;;0.70;;
26474;SDS011;14161;52.270;10.334;2023-05-10T11:26:17;0.70;;;0.52;;
26474;SDS011;14161;52.270;10.334;2023-05-10T11:29:01;1.10;;;0.75;;
26474;SDS011;14161;52.270;10.334;2023-05-10T11:31:34;0.82;;;0.70;;
26474;SDS011;14161;52.270;10.334;2023-05-10T11:34:00;2.03;;;0.70;;
26474;SDS011;14161;52.270;10.334;2023-05-10T11:36:38;0.40;;;0.40;;
26474;SDS011;14161;52.270;10.334;2023-05-10T11:39:04;1.65;;;0.60;;
26474;SDS011;14161;52.270;10.334;2023-05-10T11:41:31;1.58;;;0.70;;
26474;SDS011;14161;52.270;10.334;2023-05-10T11:44:00;1.08;;;0.70;;
26474;SDS011;14161;52.270;10.334;2023-05-10T11:46:27;0.95;;;0.80;;
26474;SDS011;14161;52.270;10.334;2023-05-10T11:49:02;1.25;;;0.68;;
26474;SDS011;14161;52.270;10.334;2023-05-10T11:51:37;1.17;;;0.90;;
26474;SDS011;14161;52.270;10.334;2023-05-10T11:54:18;2.45;;;1.33;;
26474;SDS011;14161;52.270;10.334;2023-05-10T11:56:53;0.80;;;0.80;;
26474;SDS011;14161;52.270;10.334;2023-05-10T11:59:19;1.10;;;0.95;;
26474;SDS011;14161;52.270;10.334;2023-05-10T12:01:52;0.70;;;0.70;;
26474;SDS011;14161;52.270;10.334;2023-05-10T12:04:21;0.90;;;0.70;;
26474;SDS011;14161;52.270;10.334;2023-05-10T12:06:55;0.73;;;0.60;;
26474;SDS011;14161;52.270;10.334;2023-05-10T12:09:32;0.80;;;0.80;;
26474;SDS011;14161;52.270;10.334;2023-05-10T12:12:34;0.73;;;0.73;;
26474;SDS011;14161;52.270;10.334;2023-05-10T12:15:18;0.95;;;0.80;;
26474;SDS011;14161;52.270;10.334;2023-05-10T12:17:53;1.30;;;0.90;;
26474;SDS011;14161;52.270;10.334;2023-05-10T12:20:26;0.85;;;0.75;;
26474;SDS011;14161;52.270;10.334;2023-05-10T12:22:53;1.17;;;0.77;;
26474;SDS011;14161;52.270;10.334;2023-05-10T12:26:08;0.93;;;0.80;;
26474;SDS011;14161;52.270;10.334;2023-05-10T12:29:50;0.82;;;0.50;;
26474;SDS011;14161;52.270;10.334;2023-05-10T12:32:37;1.35;;;0.93;;
26474;SDS011;14161;52.270;10.334;2023-05-10T12:35:32;2.20;;;1.00;;
26474;SDS011;14161;52.270;10.334;2023-05-10T12:38:32;1.73;;;0.70;;
26474;SDS011;14161;52.270;10.334;2023-05-10T12:41:17;1.00;;;0.90;;
26474;SDS011;14161;52.270;10.334;2023-05-10T12:44:09;0.85;;;0.75;;
26474;SDS011;14161;52.270;10.334;2023-05-10T12:46:48;2.00;;;0.95;;
26474;SDS011;14161;52.270;10.334;2023-05-10T12:49:24;2.38;;;0.90;;
26474;SDS011;14161;52.270;10.334;2023-05-10T12:52:07;1.30;;;0.90;;
26474;SDS011;14161;52.270;10.334;2023-05-10T12:54:35;0.70;;;0.70;;
26474;SDS011;14161;52.270;10.334;2023-05-10T12:57:07;0.80;;;0.80;;
26474;SDS011;14161;52.270;10.334;2023-05-10T12:59:32;1.02;;;0.93;;
26474;SDS011;14161;52.270;10.334;2023-05-10T13:01:58;1.10;;;1.00;;
26474;SDS011;14161;52.270;10.334;2023-05-10T13:04:23;0.98;;;0.93;;
26474;SDS011;14161;52.270;10.334;2023-05-10T13:06:52;1.00;;;0.82;;
26474;SDS011;14161;52.270;10.334;2023-05-10T13:09:17;1.52;;;0.95;;
26474;SDS011;14161;52.270;10.334;2023-05-10T13:11:43;1.55;;;1.00;;
26474;SDS011;14161;52.270;10.334;2023-05-10T13:14:10;1.88;;;0.90;;
26474;SDS011;14161;52.270;10.334;2023-05-10T13:16:35;1.00;;;0.80;;
26474;SDS011;14161;52.270;10.334;2023-05-10T13:19:01;1.75;;;0.93;;
26474;SDS011;14161;52.270;10.334;2023-05-10T13:21:26;1.70;;;1.02;;
26474;SDS011;14161;52.270;10.334;2023-05-10T13:23:53;1.13;;;1.00;;
26474;SDS011;14161;52.270;10.334;2023-05-10T13:26:26;1.15;;;0.90;;
26474;SDS011;14161;52.270;10.334;2023-05-10T13:28:51;1.65;;;0.90;;
26474;SDS011;14161;52.270;10.334;2023-05-10T13:31:17;1.25;;;1.10;;
26474;SDS011;14161;52.270;10.334;2023-05-10T13:33:42;2.20;;;1.30;;
26474;SDS011;14161;52.270;10.334;2023-05-10T13:36:07;1.23;;;1.13;;
26474;SDS011;14161;52.270;10.334;2023-05-10T13:38:33;2.78;;;1.27;;
26474;SDS011;14161;52.270;10.334;2023-05-10T13:40:59;2.83;;;1.17;;
26474;SDS011;14161;52.270;10.334;2023-05-10T13:43:25;1.30;;;1.17;;
26474;SDS011;14161;52.270;10.334;2023-05-10T13:45:50;1.63;;;0.80;;
26474;SDS011;14161;52.270;10.334;2023-05-10T13:48:16;1.63;;;1.30;;
26474;SDS011;14161;52.270;10.334;2023-05-10T13:50:42;1.30;;;1.20;;
26474;SDS011;14161;52.270;10.334;2023-05-10T13:53:08;1.23;;;1.13;;
26474;SDS011;14161;52.270;10.334;2023-05-10T13:55:33;1.50;;;1.20;;
26474;SDS011;14161;52.270;10.334;2023-05-10T13:57:59;1.00;;;0.90;;
26474;SDS011;14161;52.270;10.334;2023-05-10T14:00:25;2.42;;;1.25;;
26474;SDS011;14161;52.270;10.334;2023-05-10T14:02:51;2.05;;;1.27;;
26474;SDS011;14161;52.270;10.334;2023-05-10T14:05:17;1.25;;;1.10;;
26474;SDS011;14161;52.270;10.334;2023-05-10T14:07:42;1.27;;;1.10;;
26474;SDS011;14161;52.270;10.334;2023-05-10T14:10:08;1.13;;;0.93;;
26474;SDS011;14161;52.270;10.334;2023-05-10T14:12:33;2.10;;;1.30;;
26474;SDS011;14161;52.270;10.334;2023-05-10T14:14:59;1.27;;;1.15;;
26474;SDS011;14161;52.270;10.334;2023-05-10T14:17:25;2.00;;;1.30;;
26474;SDS011;14161;52.270;10.334;2023-05-10T14:19:50;2.03;;;1.30;;
26474;SDS011;14161;52.270;10.334;2023-05-10T14:22:16;1.48;;;1.10;;
26474;SDS011;14161;52.270;10.334;2023-05-10T14:24:41;1.65;;;1.35;;
26474;SDS011;14161;52.270;10.334;2023-05-10T14:27:08;1.77;;;1.30;;
26474;SDS011;14161;52.270;10.334;2023-05-10T14:29:33;1.17;;;1.08;;
26474;SDS011;14161;52.270;10.334;2023-05-10T14:31:59;1.30;;;1.08;;
26474;SDS011;14161;52.270;10.334;2023-05-10T14:34:24;3.50;;;1.15;;
26474;SDS011;14161;52.270;10.334;2023-05-10T14:36:50;2.67;;;1.40;;
26474;SDS011;14161;52.270;10.334;2023-05-10T14:39:15;1.88;;;1.40;;
26474;SDS011;14161;52.270;10.334;2023-05-10T14:41:41;2.25;;;1.38;;
26474;SDS011;14161;52.270;10.334;2023-05-10T14:44:08;1.38;;;0.90;;
26474;SDS011;14161;52.270;10.334;2023-05-10T14:46:33;1.48;;;0.93;;
26474;SDS011;14161;52.270;10.334;2023-05-10T14:48:59;0.95;;;0.80;;
26474;SDS011;14161;52.270;10.334;2023-05-10T14:51:24;0.85;;;0.70;;
26474;SDS011;14161;52.270;10.334;2023-05-10T14:53:50;1.00;;;0.90;;
26474;SDS011;14161;52.270;10.334;2023-05-10T14:56:15;1.55;;;1.02;;
26474;SDS011;14161;52.270;10.334;2023-05-10T14:58:41;1.83;;;1.10;;
26474;SDS011;14161;52.270;10.334;2023-05-10T15:01:06;1.13;;;1.00;;
26474;SDS011;14161;52.270;10.334;2023-05-10T15:03:32;1.27;;;1.02;;
26474;SDS011;14161;52.270;10.334;2023-05-10T15:05:57;1.00;;;0.90;;
26474;SDS011;14161;52.270;10.334;2023-05-10T15:08:23;2.92;;;1.13;;
26474;SDS011;14161;52.270;10.334;2023-05-10T15:10:49;0.93;;;0.80;;
26474;SDS011;14161;52.270;10.334;2023-05-10T15:13:15;1.10;;;0.77;;
26474;SDS011;14161;52.270;10.334;2023-05-10T15:15:41;1.73;;;1.23;;
26474;SDS011;14161;52.270;10.334;2023-05-10T15:18:06;1.10;;;1.00;;
26474;SDS011;14161;52.270;10.334;2023-05-10T15:20:32;1.05;;;0.80;;
26474;SDS011;14161;52.270;10.334;2023-05-10T15:22:57;1.38;;;0.90;;
26474;SDS011;14161;52.270;10.334;2023-05-10T15:25:23;1.20;;;0.95;;
26474;SDS011;14161;52.270;10.334;2023-05-10T15:27:48;2.40;;;1.15;;
26474;SDS011;14161;52.270;10.334;2023-05-10T15:30:14;1.00;;;0.80;;
26474;SDS011;14161;52.270;10.334;2023-05-10T15:32:39;1.25;;;1.08;;
26474;SDS011;14161;52.270;10.334;2023-05-10T15:35:06;1.73;;;0.95;;
26474;SDS011;14161;52.270;10.334;2023-05-10T15:37:32;2.25;;;1.00;;
26474;SDS011;14161;52.270;10.334;2023-05-10T15:39:58;3.00;;;1.40;;
26474;SDS011;14161;52.270;10.334;2023-05-10T15:42:28;1.20;;;1.10;;
26474;SDS011;14161;52.270;10.334;2023-05-10T15:44:57;1.48;;;1.08;;
26474;SDS011;14161;52.270;10.334;2023-05-10T15:47:23;1.23;;;1.13;;
26474;SDS011;14161;52.270;10.334;2023-05-10T15:49:48;1.45;;;1.25;;
26474;SDS011;14161;52.270;10.334;2023-05-10T15:52:14;1.17;;;1.00;;
26474;SDS011;14161;52.270;10.334;2023-05-10T15:54:39;1.23;;;1.02;;
26474;SDS011;14161;52.270;10.334;2023-05-10T15:57:05;1.65;;;1.20;;
26474;SDS011;14161;52.270;10.334;2023-05-10T15:59:31;1.67;;;0.82;;
26474;SDS011;14161;52.270;10.334;2023-05-10T16:01:56;1.15;;;0.80;;
26474;SDS011;14161;52.270;10.334;2023-05-10T16:04:25;0.80;;;0.80;;
26474;SDS011;14161;52.270;10.334;2023-05-10T16:06:51;1.58;;;0.80;;
26474;SDS011;14161;52.270;10.334;2023-05-10T16:09:16;1.40;;;1.10;;
26474;SDS011;14161;52.270;10.334;2023-05-10T16:11:42;2.63;;;1.00;;
26474;SDS011;14161;52.270;10.334;2023-05-10T16:14:08;1.83;;;0.80;;
26474;SDS011;14161;52.270;10.334;2023-05-10T16:16:34;1.77;;;0.90;;
26474;SDS011;14161;52.270;10.334;2023-05-10T16:18:59;1.35;;;0.90;;
26474;SDS011;14161;52.270;10.334;2023-05-10T16:21:26;1.63;;;0.90;;
26474;SDS011;14161;52.270;10.334;2023-05-10T16:23:53;1.33;;;0.80;;
26474;SDS011;14161;52.270;10.334;2023-05-10T16:26:18;1.33;;;0.80;;
26474;SDS011;14161;52.270;10.334;2023-05-10T16:28:45;2.08;;;1.10;;
26474;SDS011;14161;52.270;10.334;2023-05-10T16:31:11;2.25;;;1.23;;
26474;SDS011;14161;52.270;10.334;2023-05-10T16:33:37;2.65;;;0.63;;
26474;SDS011;14161;52.270;10.334;2023-05-10T16:36:03;1.48;;;0.93;;
26474;SDS011;14161;52.270;10.334;2023-05-10T16:38:30;3.38;;;0.90;;
26474;SDS011;14161;52.270;10.334;2023-05-10T16:40:55;1.38;;;1.20;;
26474;SDS011;14161;52.270;10.334;2023-05-10T16:43:21;1.80;;;1.15;;
26474;SDS011;14161;52.270;10.334;2023-05-10T16:45:47;2.40;;;1.23;;
26474;SDS011;14161;52.270;10.334;2023-05-10T16:48:12;2.25;;;1.27;;
26474;SDS011;14161;52.270;10.334;2023-05-10T16:50:37;1.08;;;0.90;;
26474;SDS011;14161;52.270;10.334;2023-05-10T16:53:03;2.75;;;1.30;;
26474;SDS011;14161;52.270;10.334;2023-05-10T16:55:28;1.65;;;1.20;;
26474;SDS011;14161;52.270;10.334;2023-05-10T16:57:54;3.10;;;1.50;;
26474;SDS011;14161;52.270;10.334;2023-05-10T17:00:25;2.78;;;1.73;;
26474;SDS011;14161;52.270;10.334;2023-05-10T17:02:51;2.60;;;2.00;;
26474;SDS011;14161;52.270;10.334;2023-05-10T17:05:17;2.85;;;1.90;;
26474;SDS011;14161;52.270;10.334;2023-05-10T17:07:42;3.17;;;2.35;;
26474;SDS011;14161;52.270;10.334;2023-05-10T17:10:08;2.88;;;2.03;;
26474;SDS011;14161;52.270;10.334;2023-05-10T17:12:34;2.90;;;2.28;;
26474;SDS011;14161;52.270;10.334;2023-05-10T17:15:03;3.58;;;2.85;;
26474;SDS011;14161;52.270;10.334;2023-05-10T17:17:32;3.13;;;2.80;;
26474;SDS011;14161;52.270;10.334;2023-05-10T17:19:57;6.40;;;2.95;;
26474;SDS011;14161;52.270;10.334;2023-05-10T17:22:23;2.90;;;2.45;;
26474;SDS011;14161;52.270;10.334;2023-05-10T17:24:51;3.08;;;2.78;;
26474;SDS011;14161;52.270;10.334;2023-05-10T17:27:19;3.20;;;2.90;;
26474;SDS011;14161;52.270;10.334;2023-05-10T17:29:45;4.50;;;2.88;;
26474;SDS011;14161;52.270;10.334;2023-05-10T17:32:10;3.20;;;2.60;;
26474;SDS011;14161;52.270;10.334;2023-05-10T17:34:49;4.32;;;3.10;;
26474;SDS011;14161;52.270;10.334;2023-05-10T17:37:17;3.20;;;2.90;;
26474;SDS011;14161;52.270;10.334;2023-05-10T17:39:46;4.65;;;3.47;;
26474;SDS011;14161;52.270;10.334;2023-05-10T17:42:12;5.60;;;4.55;;
26474;SDS011;14161;52.270;10.334;2023-05-10T17:44:53;6.25;;;4.43;;
26474;SDS011;14161;52.270;10.334;2023-05-10T17:47:22;6.32;;;4.38;;
26474;SDS011;14161;52.270;10.334;2023-05-10T17:49:48;5.72;;;4.43;;
26474;SDS011;14161;52.270;10.334;2023-05-10T17:52:13;6.60;;;4.63;;
26474;SDS011;14161;52.270;10.334;2023-05-10T17:54:50;6.20;;;4.05;;
26474;SDS011;14161;52.270;10.334;2023-05-10T18:01:54;4.32;;;3.40;;
26474;SDS011;14161;52.270;10.334;2023-05-10T18:04:45;4.35;;;3.60;;
